createdAt,value
2022-11-02T00:00:42.365Z,8.70
2022-11-02T00:02:40.746Z,8.81
2022-11-02T00:04:40.534Z,8.75
2022-11-02T00:06:38.858Z,8.74
2022-11-02T00:08:37.314Z,8.68
2022-11-02T00:10:35.821Z,8.58
2022-11-02T00:12:34.058Z,8.63
2022-11-02T00:14:32.366Z,8.60
2022-11-02T00:16:31.044Z,8.59
2022-11-02T00:18:29.654Z,8.68
2022-11-02T00:20:29.798Z,8.71
2022-11-02T00:22:28.383Z,8.69
2022-11-02T00:24:26.771Z,8.63
2022-11-02T00:26:25.881Z,8.66
2022-11-02T00:28:24.556Z,8.56
2022-11-02T00:30:23.410Z,8.54
2022-11-02T00:32:22.376Z,8.56
2022-11-02T00:34:21.397Z,8.52
2022-11-02T00:36:21.886Z,8.49
2022-11-02T00:38:20.410Z,8.46
2022-11-02T00:40:18.998Z,8.43
2022-11-02T00:42:17.470Z,8.44
2022-11-02T00:44:15.845Z,8.41
2022-11-02T00:46:14.630Z,8.37
2022-11-02T00:48:13.419Z,8.24
2022-11-02T00:50:11.828Z,8.17
2022-11-02T00:52:12.975Z,8.13
2022-11-02T00:54:11.665Z,8.09
2022-11-02T00:56:10.086Z,8.10
2022-11-02T00:58:08.592Z,8.12
2022-11-02T01:00:08.311Z,8.15
2022-11-02T01:02:06.650Z,8.18
2022-11-02T01:04:05.379Z,8.14
2022-11-02T01:06:09.802Z,8.13
2022-11-02T01:08:10.186Z,8.13
2022-11-02T01:10:10.011Z,8.06
2022-11-02T01:12:08.761Z,7.99
2022-11-02T01:14:07.165Z,7.98
2022-11-02T01:16:06.132Z,7.97
2022-11-02T01:18:05.376Z,7.99
2022-11-02T01:20:05.162Z,8.06
2022-11-02T01:22:03.444Z,8.11
2022-11-02T01:24:03.164Z,8.13
2022-11-02T01:26:04.704Z,8.14
2022-11-02T01:28:03.022Z,8.15
2022-11-02T01:30:01.599Z,8.16
2022-11-02T01:31:59.977Z,8.23
2022-11-02T01:33:58.487Z,8.16
2022-11-02T01:35:58.053Z,8.07
2022-11-02T01:37:56.310Z,7.97
2022-11-02T01:39:55.930Z,8.02
2022-11-02T01:41:55.462Z,8.06
2022-11-02T01:43:59.045Z,8.07
2022-11-02T01:46:02.999Z,8.05
2022-11-02T01:48:01.790Z,8.04
2022-11-02T01:50:06.062Z,8.04
2022-11-02T01:52:08.390Z,8.06
2022-11-02T01:54:10.804Z,8.05
2022-11-02T01:56:13.332Z,8.02
2022-11-02T01:58:13.500Z,7.89
2022-11-02T02:00:15.350Z,7.81
2022-11-02T02:02:19.370Z,7.80
2022-11-02T02:04:18.167Z,7.73
2022-11-02T02:06:18.076Z,7.68
2022-11-02T02:08:19.168Z,7.73
2022-11-02T02:10:17.532Z,7.70
2022-11-02T02:12:17.045Z,7.65
2022-11-02T02:14:18.233Z,7.70
2022-11-02T02:16:27.789Z,7.68
2022-11-02T02:18:34.414Z,7.70
2022-11-02T02:20:47.907Z,7.67
2022-11-02T02:23:21.180Z,7.58
2022-11-02T02:25:54.070Z,7.58
2022-11-02T02:28:10.743Z,7.52
2022-11-02T02:30:10.602Z,7.49
2022-11-02T02:32:16.452Z,7.58
2022-11-02T02:34:19.567Z,7.60
2022-11-02T02:36:23.157Z,7.70
2022-11-02T02:38:29.582Z,7.76
2022-11-02T02:40:34.605Z,7.79
2022-11-02T02:42:37.502Z,7.85
2022-11-02T02:44:39.615Z,7.80
2022-11-02T02:46:42.988Z,7.73
2022-11-02T02:48:44.904Z,7.63
2022-11-02T02:50:48.813Z,7.60
2022-11-02T02:52:52.165Z,7.57
2022-11-02T02:54:53.702Z,7.52
2022-11-02T02:56:55.871Z,7.60
2022-11-02T02:58:59.604Z,7.63
2022-11-02T03:01:01.895Z,7.56
2022-11-02T03:03:02.197Z,7.50
2022-11-02T03:05:00.443Z,7.47
2022-11-02T03:07:02.495Z,7.34
2022-11-02T03:09:20.069Z,7.28
2022-11-02T03:11:23.413Z,7.20
2022-11-02T03:13:36.749Z,7.16
2022-11-02T03:15:41.881Z,7.17
2022-11-02T03:17:51.207Z,7.22
2022-11-02T03:19:55.408Z,7.20
2022-11-02T03:22:01.783Z,7.24
2022-11-02T03:24:06.533Z,7.20
2022-11-02T03:26:09.006Z,7.13
2022-11-02T03:28:17.553Z,7.17
2022-11-02T03:30:19.137Z,7.12
2022-11-02T03:32:25.774Z,7.01
2022-11-02T03:34:29.995Z,6.96
2022-11-02T03:36:36.193Z,6.91
2022-11-02T03:38:37.328Z,6.86
2022-11-02T03:40:41.791Z,6.91
2022-11-02T03:42:43.031Z,6.96
2022-11-02T03:44:42.992Z,7.04
2022-11-02T03:46:44.999Z,7.08
2022-11-02T03:48:49.481Z,7.10
2022-11-02T03:50:53.502Z,7.02
2022-11-02T03:52:58.879Z,7.04
2022-11-02T03:55:04.965Z,6.98
2022-11-02T03:57:08.612Z,6.96
2022-11-02T03:59:07.266Z,6.90
2022-11-02T04:01:09.444Z,6.87
2022-11-02T04:03:13.237Z,6.87
2022-11-02T04:05:15.875Z,6.87
2022-11-02T04:07:21.044Z,7.01
2022-11-02T04:09:19.611Z,7.05
2022-11-02T04:11:35.491Z,7.09
2022-11-02T04:13:55.987Z,7.07
2022-11-02T04:15:56.314Z,6.96
2022-11-02T04:18:12.148Z,6.91
2022-11-02T04:20:11.761Z,6.83
2022-11-02T04:22:28.008Z,6.77
2022-11-02T04:24:52.770Z,6.82
2022-11-02T04:26:51.338Z,6.83
2022-11-02T04:28:49.878Z,6.82
2022-11-02T04:30:49.053Z,6.81
2022-11-02T04:33:17.230Z,6.84
2022-11-02T04:35:21.748Z,6.80
2022-11-02T04:37:33.747Z,6.74
2022-11-02T04:39:32.162Z,6.70
2022-11-02T04:41:43.437Z,6.67
2022-11-02T04:43:56.833Z,6.78
2022-11-02T04:45:58.983Z,6.80
2022-11-02T04:48:02.101Z,6.76
2022-11-02T04:50:00.733Z,6.69
2022-11-02T04:51:59.703Z,6.69
2022-11-02T04:54:00.269Z,6.74
2022-11-02T04:55:59.497Z,6.81
2022-11-02T04:57:59.387Z,6.77
2022-11-02T04:59:58.090Z,6.70
2022-11-02T05:01:56.571Z,6.68
2022-11-02T05:03:56.147Z,6.68
2022-11-02T05:05:56.579Z,6.69
2022-11-02T05:07:55.709Z,6.75
2022-11-02T05:09:54.466Z,6.76
2022-11-02T05:11:54.458Z,6.80
2022-11-02T05:13:54.362Z,6.82
2022-11-02T05:15:53.149Z,6.85
2022-11-02T05:17:51.700Z,6.89
2022-11-02T05:19:49.910Z,6.97
2022-11-02T05:21:49.415Z,7.06
2022-11-02T05:23:49.027Z,7.08
2022-11-02T05:25:54.772Z,7.14
2022-11-02T05:27:54.424Z,7.20
2022-11-02T05:29:54.933Z,7.38
2022-11-02T05:31:53.772Z,7.76
2022-11-02T05:33:52.556Z,8.05
2022-11-02T05:35:53.058Z,8.42
2022-11-02T05:37:51.361Z,8.89
2022-11-02T05:39:50.617Z,9.54
2022-11-02T05:41:49.340Z,10.33
2022-11-02T05:43:47.950Z,10.87
2022-11-02T05:45:53.131Z,11.39
2022-11-02T05:47:51.381Z,11.53
2022-11-02T05:49:53.269Z,11.99
2022-11-02T05:51:51.630Z,12.49
2022-11-02T05:53:51.030Z,12.93
2022-11-02T05:55:50.041Z,13.15
2022-11-02T05:57:52.181Z,13.27
2022-11-02T05:59:50.585Z,13.50
2022-11-02T06:01:51.754Z,13.60
2022-11-02T06:03:53.487Z,14.15
2022-11-02T06:05:58.050Z,14.55
2022-11-02T06:07:58.719Z,15.15
2022-11-02T06:09:56.984Z,15.52
2022-11-02T06:11:56.943Z,15.46
2022-11-02T06:13:55.200Z,15.63
2022-11-02T06:15:53.510Z,15.74
2022-11-02T06:17:53.294Z,15.73
2022-11-02T06:19:52.090Z,16.00
2022-11-02T06:21:50.294Z,15.93
2022-11-02T06:23:49.269Z,16.75
2022-11-02T06:25:52.284Z,16.42
2022-11-02T06:27:54.977Z,16.26
2022-11-02T06:29:54.095Z,17.05
2022-11-02T06:31:52.275Z,16.83
2022-11-02T06:33:51.939Z,16.89
2022-11-02T06:35:52.150Z,17.30
2022-11-02T06:37:50.343Z,18.08
2022-11-02T06:39:48.769Z,18.37
2022-11-02T06:41:46.889Z,18.19
2022-11-02T06:43:45.357Z,17.26
2022-11-02T06:45:43.669Z,17.77
2022-11-02T06:47:41.868Z,17.34
2022-11-02T06:49:41.754Z,16.74
2022-11-02T06:51:40.236Z,16.59
2022-11-02T06:53:38.480Z,15.56
2022-11-02T06:55:36.755Z,15.00
2022-11-02T06:57:37.765Z,14.39
2022-11-02T06:59:35.932Z,13.92
2022-11-02T07:01:35.305Z,13.22
2022-11-02T07:03:34.125Z,13.14
2022-11-02T07:05:34.880Z,13.08
2022-11-02T07:07:33.149Z,12.92
2022-11-02T07:09:31.514Z,12.91
2022-11-02T07:11:29.791Z,12.47
2022-11-02T07:13:27.960Z,12.64
2022-11-02T07:15:27.566Z,12.83
2022-11-02T07:17:29.610Z,12.89
2022-11-02T07:19:30.423Z,12.83
2022-11-02T07:21:29.884Z,12.85
2022-11-02T07:23:28.183Z,12.95
2022-11-02T07:25:28.392Z,13.03
2022-11-02T07:27:26.715Z,12.91
2022-11-02T07:29:25.095Z,12.95
2022-11-02T07:31:23.458Z,13.04
2022-11-02T07:33:21.550Z,13.65
2022-11-02T07:35:20.134Z,15.55
2022-11-02T07:37:19.919Z,16.73
2022-11-02T07:39:19.097Z,17.79
2022-11-02T07:41:17.512Z,19.09
2022-11-02T07:43:15.796Z,20.03
2022-11-02T07:45:24.340Z,20.37
2022-11-02T07:47:22.691Z,20.32
2022-11-02T07:49:21.753Z,20.35
2022-11-02T07:51:20.090Z,21.27
2022-11-02T07:53:19.866Z,21.67
2022-11-02T07:55:20.178Z,21.84
2022-11-02T07:57:18.701Z,22.05
2022-11-02T07:59:17.134Z,22.00
2022-11-02T08:01:15.865Z,21.68
2022-11-02T08:03:14.874Z,21.81
2022-11-02T08:05:13.254Z,21.88
2022-11-02T08:07:11.605Z,22.14
2022-11-02T08:09:11.260Z,23.09
2022-11-02T08:11:10.651Z,23.56
2022-11-02T08:13:10.189Z,24.02
2022-11-02T08:15:09.509Z,24.87
2022-11-02T08:17:07.777Z,24.02
2022-11-02T08:19:05.902Z,25.26
2022-11-02T08:21:04.718Z,24.91
2022-11-02T08:23:03.229Z,25.11
2022-11-02T08:25:03.005Z,24.83
2022-11-02T08:27:02.058Z,24.35
2022-11-02T08:29:00.134Z,23.77
2022-11-02T08:30:59.160Z,23.77
2022-11-02T08:32:57.568Z,24.59
2022-11-02T08:34:56.676Z,24.36
2022-11-02T08:36:54.951Z,24.49
2022-11-02T08:38:53.006Z,24.92
2022-11-02T08:40:52.785Z,24.39
2022-11-02T08:42:56.398Z,23.85
2022-11-02T08:44:56.398Z,24.68
2022-11-02T08:46:56.578Z,25.38
2022-11-02T08:48:54.827Z,25.40
2022-11-02T08:50:53.108Z,25.55
2022-11-02T08:52:51.564Z,25.09
2022-11-02T08:54:49.747Z,25.07
2022-11-02T08:56:49.639Z,24.79
2022-11-02T08:58:48.156Z,25.97
2022-11-02T09:00:46.505Z,26.66
2022-11-02T09:02:45.215Z,26.82
2022-11-02T09:04:43.828Z,27.14
2022-11-02T09:06:42.002Z,27.95
2022-11-02T09:08:40.243Z,28.72
2022-11-02T09:10:38.908Z,28.72
2022-11-02T09:12:38.656Z,28.70
2022-11-02T09:14:36.710Z,28.46
2022-11-02T09:16:40.185Z,28.08
2022-11-02T09:18:39.783Z,28.51
2022-11-02T09:20:38.986Z,27.71
2022-11-02T09:22:38.016Z,29.40
2022-11-02T09:24:36.784Z,29.85
2022-11-02T09:26:35.518Z,30.03
2022-11-02T09:28:35.451Z,29.65
2022-11-02T09:30:34.348Z,29.45
2022-11-02T09:32:33.891Z,29.28
2022-11-02T09:34:32.342Z,28.44
2022-11-02T09:36:33.008Z,30.07
2022-11-02T09:38:31.756Z,30.11
2022-11-02T09:40:32.917Z,29.31
2022-11-02T09:42:41.114Z,29.14
2022-11-02T09:44:49.036Z,29.94
2022-11-02T09:46:53.884Z,29.84
2022-11-02T09:49:12.766Z,30.13
2022-11-02T09:51:15.718Z,31.01
2022-11-02T09:53:19.247Z,31.46
2022-11-02T09:55:23.205Z,31.47
2022-11-02T09:57:28.774Z,31.60
2022-11-02T09:59:28.203Z,31.25
2022-11-02T10:01:59.027Z,30.01
2022-11-02T10:04:17.312Z,29.52
2022-11-02T10:06:20.483Z,31.29
2022-11-02T10:08:31.747Z,30.93
2022-11-02T10:10:35.956Z,31.39
2022-11-02T10:12:44.188Z,32.40
2022-11-02T10:14:52.000Z,32.43
2022-11-02T10:16:56.422Z,32.02
2022-11-02T10:18:55.905Z,32.00
2022-11-02T10:20:58.535Z,31.93
2022-11-02T10:23:03.806Z,32.05
2022-11-02T10:25:05.543Z,32.07
2022-11-02T10:27:13.994Z,32.38
2022-11-02T10:29:19.001Z,31.52
2022-11-02T10:31:24.949Z,32.70
2022-11-02T10:33:28.025Z,32.13
2022-11-02T10:35:45.875Z,32.73
2022-11-02T10:38:13.593Z,32.33
2022-11-02T10:40:27.322Z,31.84
2022-11-02T10:42:49.825Z,31.42
2022-11-02T10:45:07.485Z,30.61
2022-11-02T10:47:14.468Z,28.93
2022-11-02T10:49:22.609Z,27.42
2022-11-02T10:51:22.190Z,26.23
2022-11-02T10:55:47.226Z,25.40
2022-11-02T10:57:45.841Z,24.84
2022-11-02T10:59:44.189Z,24.34
2022-11-02T11:01:48.757Z,24.15
2022-11-02T11:04:01.264Z,24.12
2022-11-02T11:06:03.914Z,24.02
2022-11-02T11:08:03.370Z,24.03
2022-11-02T11:10:01.849Z,23.85
2022-11-02T11:12:03.074Z,23.89
2022-11-02T11:16:33.760Z,23.89
2022-11-02T11:20:56.850Z,24.01
2022-11-02T11:23:17.642Z,24.16
2022-11-02T11:25:27.962Z,24.20
2022-11-02T11:27:26.754Z,24.26
2022-11-02T11:29:25.273Z,24.21
2022-11-02T11:31:24.252Z,24.25
2022-11-02T11:33:23.279Z,24.21
2022-11-02T11:35:22.538Z,24.21
2022-11-02T11:37:21.194Z,24.29
2022-11-02T11:39:27.796Z,24.21
2022-11-02T11:41:26.498Z,24.21
2022-11-02T11:43:27.532Z,24.18
2022-11-02T11:45:28.215Z,24.15
2022-11-02T11:47:32.447Z,24.03
2022-11-02T11:50:08.954Z,24.03
2022-11-02T11:51:53.944Z,23.91
2022-11-02T11:54:07.492Z,23.97
2022-11-02T11:56:07.732Z,23.93
2022-11-02T11:58:07.943Z,23.91
2022-11-02T12:00:28.121Z,23.88
2022-11-02T12:02:28.554Z,23.88
2022-11-02T12:04:35.514Z,23.85
2022-11-02T12:06:44.133Z,23.91
2022-11-02T12:08:52.747Z,23.91
2022-11-02T12:11:01.776Z,23.89
2022-11-02T12:13:21.027Z,23.84
2022-11-02T12:15:32.828Z,23.80
2022-11-02T12:17:49.260Z,23.62
2022-11-02T12:20:02.447Z,23.57
2022-11-02T12:22:08.899Z,23.54
2022-11-02T12:24:23.730Z,23.54
2022-11-02T12:26:32.708Z,23.58
2022-11-02T12:28:42.444Z,23.43
2022-11-02T12:30:51.864Z,23.35
2022-11-02T12:33:09.906Z,23.32
2022-11-02T12:35:29.822Z,23.34
2022-11-02T12:37:47.767Z,23.27
2022-11-02T12:40:02.132Z,23.23
2022-11-02T12:42:15.274Z,23.22
2022-11-02T12:44:47.189Z,23.20
2022-11-02T12:46:51.508Z,23.16
2022-11-02T12:49:09.353Z,23.11
2022-11-02T12:51:13.796Z,23.10
2022-11-02T12:53:26.364Z,23.02
2022-11-02T12:55:34.309Z,22.97
2022-11-02T12:57:39.503Z,22.91
2022-11-02T12:59:43.408Z,22.89
2022-11-02T13:01:44.520Z,22.86
2022-11-02T13:03:51.610Z,22.85
2022-11-02T13:05:55.800Z,22.86
2022-11-02T13:08:04.764Z,22.87
2022-11-02T13:10:08.445Z,22.81
2022-11-02T13:12:10.497Z,22.83
2022-11-02T13:14:15.712Z,22.88
2022-11-02T13:16:18.983Z,22.92
2022-11-02T13:18:21.781Z,22.84
2022-11-02T13:20:23.014Z,22.81
2022-11-02T13:22:23.084Z,22.81
2022-11-02T13:24:28.022Z,22.77
2022-11-02T13:26:33.531Z,22.79
2022-11-02T13:28:40.203Z,22.71
2022-11-02T13:30:40.998Z,22.63
2022-11-02T13:32:45.090Z,22.55
2022-11-02T13:34:45.592Z,22.48
2022-11-02T13:36:45.259Z,22.50
2022-11-02T13:38:48.339Z,22.49
2022-11-02T13:40:51.249Z,22.36
2022-11-02T13:43:11.705Z,22.42
2022-11-02T13:45:35.705Z,22.50
2022-11-02T13:47:57.707Z,22.39
2022-11-02T13:49:58.785Z,22.31
2022-11-02T13:52:03.537Z,22.20
2022-11-02T13:54:05.910Z,22.13
2022-11-02T13:56:09.805Z,22.00
2022-11-02T13:58:08.289Z,21.90
2022-11-02T14:00:27.406Z,21.97
2022-11-02T14:02:26.746Z,21.84
2022-11-02T14:04:30.981Z,21.73
2022-11-02T14:06:29.631Z,21.71
2022-11-02T14:08:36.726Z,21.54
2022-11-02T14:10:38.554Z,21.48
2022-11-02T14:12:43.897Z,21.47
2022-11-02T14:14:42.447Z,21.50
2022-11-02T14:16:58.729Z,21.40
2022-11-02T14:19:19.457Z,21.42
2022-11-02T14:22:05.670Z,21.35
2022-11-02T14:24:04.182Z,21.25
2022-11-02T14:26:02.560Z,21.16
2022-11-02T14:28:45.096Z,21.16
2022-11-02T14:30:48.897Z,21.16
2022-11-02T14:32:59.759Z,21.16
2022-11-02T14:35:15.356Z,21.17
2022-11-02T14:37:31.665Z,21.00
2022-11-02T14:39:42.061Z,20.91
2022-11-02T14:42:02.395Z,20.69
2022-11-02T14:44:25.893Z,20.60
2022-11-02T14:46:44.118Z,20.46
2022-11-02T14:48:49.047Z,20.53
2022-11-02T14:51:02.103Z,20.35
2022-11-02T14:53:08.192Z,20.22
2022-11-02T14:55:10.590Z,20.28
2022-11-02T14:57:22.233Z,20.07
2022-11-02T14:59:27.107Z,19.97
2022-11-02T15:01:25.794Z,19.85
2022-11-02T15:03:32.554Z,19.72
2022-11-02T15:05:35.099Z,19.58
2022-11-02T15:07:37.095Z,19.41
2022-11-02T15:09:58.979Z,19.24
2022-11-02T15:11:59.300Z,19.10
2022-11-02T15:13:57.640Z,19.02
2022-11-02T15:16:22.212Z,18.95
2022-11-02T15:18:32.607Z,18.89
2022-11-02T15:20:33.231Z,18.85
2022-11-02T15:22:37.421Z,18.68
2022-11-02T15:24:35.934Z,18.62
2022-11-02T15:26:42.270Z,18.55
2022-11-02T15:28:43.965Z,18.47
2022-11-02T15:30:46.570Z,18.38
2022-11-02T15:32:50.897Z,18.22
2022-11-02T15:34:52.148Z,18.08
2022-11-02T15:37:03.386Z,18.01
2022-11-02T15:39:05.946Z,17.90
2022-11-02T15:41:14.850Z,17.84
2022-11-02T15:43:27.994Z,17.73
2022-11-02T15:45:59.380Z,17.57
2022-11-02T15:48:08.931Z,17.47
2022-11-02T15:50:41.765Z,17.39
2022-11-02T15:53:22.206Z,17.33
2022-11-02T15:55:25.272Z,17.27
2022-11-02T15:57:40.504Z,17.18
2022-11-02T16:00:21.792Z,17.09
2022-11-02T16:02:28.086Z,17.03
2022-11-02T16:04:29.002Z,16.97
2022-11-02T16:06:29.635Z,16.87
2022-11-02T16:08:34.189Z,16.83
2022-11-02T16:10:35.655Z,16.77
2022-11-02T16:12:36.002Z,16.64
2022-11-02T16:14:34.241Z,16.64
2022-11-02T16:16:35.922Z,16.66
2022-11-02T16:18:38.369Z,16.60
2022-11-02T16:20:39.991Z,16.93
2022-11-02T16:22:38.800Z,16.86
2022-11-02T16:26:40.690Z,16.62
2022-11-02T16:28:40.156Z,16.52
2022-11-02T16:30:38.817Z,16.37
2022-11-02T16:32:37.356Z,16.42
2022-11-02T16:34:35.734Z,16.44
2022-11-02T16:36:38.640Z,16.39
2022-11-02T16:38:38.021Z,16.31
2022-11-02T16:40:37.777Z,16.24
2022-11-02T16:42:36.044Z,16.13
2022-11-02T16:44:35.230Z,16.07
2022-11-02T16:46:43.198Z,15.99
2022-11-02T16:48:41.497Z,15.96
2022-11-02T16:50:39.812Z,15.94
2022-11-02T16:52:39.584Z,15.94
2022-11-02T16:54:41.866Z,15.90
2022-11-02T16:56:40.068Z,15.98
2022-11-02T16:58:38.373Z,15.97
2022-11-02T17:00:39.529Z,15.96
2022-11-02T17:02:40.363Z,15.92
2022-11-02T17:04:42.817Z,15.93
2022-11-02T17:06:42.197Z,15.91
2022-11-02T17:08:44.155Z,15.93
2022-11-02T17:10:45.260Z,15.99
2022-11-02T17:12:45.523Z,16.02
2022-11-02T17:14:46.034Z,15.91
2022-11-02T17:16:58.699Z,15.81
2022-11-02T17:18:57.023Z,15.75
2022-11-02T17:21:25.377Z,15.80
2022-11-02T17:23:33.450Z,15.77
2022-11-02T17:25:34.760Z,15.72
2022-11-02T17:27:39.207Z,15.65
2022-11-02T17:29:41.869Z,15.65
2022-11-02T17:31:41.376Z,15.57
2022-11-02T17:33:44.564Z,15.55
2022-11-02T17:35:47.452Z,15.51
2022-11-02T17:37:45.743Z,15.46
2022-11-02T17:39:43.986Z,15.46
2022-11-02T17:42:01.356Z,15.45
2022-11-02T17:43:59.935Z,15.51
2022-11-02T17:45:59.165Z,15.52
2022-11-02T17:47:58.784Z,15.51
2022-11-02T17:49:57.029Z,15.45
2022-11-02T17:51:55.213Z,15.39
2022-11-02T17:53:53.713Z,15.48
2022-11-02T17:55:52.122Z,15.46
2022-11-02T17:57:51.998Z,15.44
2022-11-02T17:59:51.671Z,15.43
2022-11-02T18:01:50.086Z,15.44
2022-11-02T18:03:48.389Z,15.47
2022-11-02T18:05:50.818Z,15.47
2022-11-02T18:07:50.844Z,15.40
2022-11-02T18:09:49.252Z,15.59
2022-11-02T18:11:47.643Z,15.56
2022-11-02T18:13:47.339Z,15.59
2022-11-02T18:15:46.331Z,15.46
2022-11-02T18:17:44.733Z,15.36
2022-11-02T18:19:42.947Z,15.29
2022-11-02T18:21:41.211Z,15.25
2022-11-02T18:23:41.019Z,15.34
2022-11-02T18:25:39.658Z,15.26
2022-11-02T18:27:37.973Z,15.29
2022-11-02T18:29:37.804Z,15.17
2022-11-02T18:31:37.447Z,15.05
2022-11-02T18:33:36.025Z,14.95
2022-11-02T18:35:34.398Z,14.84
2022-11-02T18:37:33.201Z,14.89
2022-11-02T18:39:34.368Z,14.87
2022-11-02T18:41:35.063Z,14.81
2022-11-02T18:43:33.253Z,14.76
2022-11-02T18:45:33.021Z,14.68
2022-11-02T18:47:31.903Z,14.64
2022-11-02T18:49:30.070Z,14.62
2022-11-02T18:51:28.693Z,14.65
2022-11-02T18:53:26.878Z,14.59
2022-11-02T18:55:25.042Z,14.64
2022-11-02T18:57:27.904Z,14.68
2022-11-02T18:59:26.606Z,14.65
2022-11-02T19:01:26.993Z,14.64
2022-11-02T19:03:25.406Z,14.55
2022-11-02T19:05:40.885Z,14.76
2022-11-02T19:08:11.307Z,14.73
2022-11-02T19:10:11.145Z,14.72
2022-11-02T19:12:11.641Z,14.83
2022-11-02T19:14:10.027Z,14.76
2022-11-02T19:16:08.611Z,14.78
2022-11-02T19:18:08.514Z,14.76
2022-11-02T19:20:08.539Z,14.74
2022-11-02T19:22:06.843Z,14.72
2022-11-02T19:24:06.773Z,14.79
2022-11-02T19:26:05.495Z,14.77
2022-11-02T19:28:05.216Z,14.78
2022-11-02T19:30:11.685Z,14.80
2022-11-02T19:32:13.336Z,14.99
2022-11-02T19:34:13.168Z,15.04
2022-11-02T19:36:11.359Z,15.20
2022-11-02T19:38:12.492Z,15.18
2022-11-02T19:40:12.360Z,15.13
2022-11-02T19:42:10.748Z,15.16
2022-11-02T19:44:09.110Z,15.13
2022-11-02T19:46:08.709Z,15.10
2022-11-02T19:48:07.377Z,15.07
2022-11-02T19:50:10.631Z,15.16
2022-11-02T19:52:08.923Z,15.18
2022-11-02T19:54:08.206Z,15.11
2022-11-02T19:56:10.338Z,15.10
2022-11-02T19:58:08.797Z,15.05
2022-11-02T20:00:10.344Z,15.01
2022-11-02T20:02:10.615Z,14.98
2022-11-02T20:04:09.122Z,14.86
2022-11-02T20:06:11.984Z,14.75
2022-11-02T20:08:10.835Z,14.74
2022-11-02T20:10:10.139Z,14.78
2022-11-02T20:12:09.071Z,14.75
2022-11-02T20:14:07.367Z,14.83
2022-11-02T20:16:07.903Z,14.82
2022-11-02T20:18:18.974Z,14.83
2022-11-02T20:20:18.423Z,14.82
2022-11-02T20:22:18.929Z,14.80
2022-11-02T20:24:17.114Z,14.80
2022-11-02T20:26:17.693Z,14.69
2022-11-02T20:28:16.244Z,14.71
2022-11-02T20:30:14.775Z,14.70
2022-11-02T20:32:13.204Z,14.73
2022-11-02T20:34:14.019Z,14.81
2022-11-02T20:36:12.746Z,14.82
2022-11-02T20:38:12.498Z,14.90
2022-11-02T20:40:11.975Z,14.91
2022-11-02T20:42:11.213Z,14.94
2022-11-02T20:44:09.510Z,14.93
2022-11-02T20:46:35.834Z,14.87
2022-11-02T20:48:28.543Z,14.89
2022-11-02T20:50:27.076Z,14.82
2022-11-02T20:52:25.335Z,14.86
2022-11-02T20:54:25.365Z,14.92
2022-11-02T20:56:24.836Z,14.87
2022-11-02T20:58:23.143Z,14.88
2022-11-02T21:00:21.693Z,14.90
2022-11-02T21:02:22.322Z,14.92
2022-11-02T21:04:21.841Z,14.85
2022-11-02T21:06:20.329Z,14.77
2022-11-02T21:08:22.232Z,14.81
2022-11-02T21:10:21.913Z,14.84
2022-11-02T21:12:38.004Z,14.79
2022-11-02T21:14:36.355Z,14.79
2022-11-02T21:16:35.311Z,14.79
2022-11-02T21:18:34.371Z,14.75
2022-11-02T21:20:34.638Z,14.70
2022-11-02T21:22:33.327Z,14.64
2022-11-02T21:24:31.486Z,14.61
2022-11-02T21:26:31.209Z,14.57
2022-11-02T21:28:30.517Z,14.56
2022-11-02T21:30:31.078Z,14.58
2022-11-02T21:32:29.177Z,14.56
2022-11-02T21:34:27.776Z,14.62
2022-11-02T21:36:25.915Z,14.70
2022-11-02T21:38:24.308Z,14.76
2022-11-02T21:40:22.593Z,14.79
2022-11-02T21:42:22.203Z,14.82
2022-11-02T21:44:20.538Z,14.77
2022-11-02T21:46:20.216Z,14.74
2022-11-02T21:48:18.356Z,14.75
2022-11-02T21:50:16.746Z,14.73
2022-11-02T21:52:15.056Z,14.73
2022-11-02T21:54:13.359Z,14.71
2022-11-02T21:56:13.160Z,14.77
2022-11-02T21:58:14.355Z,14.73
2022-11-02T22:00:13.668Z,14.68
2022-11-02T22:02:10.879Z,14.65
2022-11-02T22:04:10.159Z,14.69
2022-11-02T22:06:09.025Z,14.67
2022-11-02T22:08:25.100Z,14.61
2022-11-02T22:10:23.560Z,14.64
2022-11-02T22:12:39.375Z,14.74
2022-11-02T22:14:39.712Z,14.85
2022-11-02T22:16:40.004Z,14.82
2022-11-02T22:18:38.555Z,14.88
2022-11-02T22:20:36.780Z,14.83
2022-11-02T22:22:35.382Z,14.86
2022-11-02T22:24:33.760Z,14.93
2022-11-02T22:26:33.397Z,14.96
2022-11-02T22:28:32.202Z,14.96
2022-11-02T22:30:32.310Z,14.98
2022-11-02T22:32:30.586Z,14.99
2022-11-02T22:34:28.915Z,14.97
2022-11-02T22:36:28.923Z,15.03
2022-11-02T22:38:44.369Z,15.02
2022-11-02T22:40:42.718Z,15.06
2022-11-02T22:42:42.573Z,15.01
2022-11-02T22:44:40.837Z,14.98
2022-11-02T22:46:41.873Z,14.93
2022-11-02T22:48:40.248Z,14.91
2022-11-02T22:50:38.547Z,14.93
2022-11-02T22:52:36.759Z,14.92
2022-11-02T22:54:34.908Z,14.98
2022-11-02T22:56:34.225Z,15.00
2022-11-02T22:58:34.037Z,14.96
2022-11-02T23:00:32.341Z,14.92
2022-11-02T23:02:31.989Z,14.87
2022-11-02T23:04:30.177Z,14.82
2022-11-02T23:06:29.025Z,14.65
2022-11-02T23:10:49.333Z,14.44
2022-11-02T23:12:51.708Z,14.43
2022-11-02T23:14:50.021Z,14.60
2022-11-02T23:16:48.637Z,14.65
2022-11-02T23:19:06.514Z,14.68
2022-11-02T23:21:04.999Z,14.70
2022-11-02T23:23:20.180Z,14.67
2022-11-02T23:25:19.429Z,14.77
2022-11-02T23:27:17.728Z,14.69
2022-11-02T23:29:33.390Z,14.79
2022-11-02T23:31:48.890Z,14.90
2022-11-02T23:33:48.411Z,14.83
2022-11-02T23:36:04.270Z,14.75
2022-11-02T23:38:04.289Z,14.75
2022-11-02T23:40:01.570Z,14.71
2022-11-02T23:41:59.732Z,14.72
2022-11-02T23:46:20.239Z,14.71
2022-11-02T23:48:18.424Z,14.70
2022-11-02T23:50:39.287Z,14.66
2022-11-02T23:52:55.576Z,14.61
2022-11-02T23:55:13.241Z,14.57
2022-11-02T23:57:11.561Z,14.58
2022-11-02T23:59:09.778Z,14.58
